Time;durP1;ratioP1;P1;durP2;ratioP2;P2;SDS_P1;SDS_P2;PMS_P1;PMS_P2;Temp;Humidity;BMP_temperature;BMP_pressure;BME280_temperature;BME280_humidity;BME280_pressure;Samples;Min_cycle;Max_cycle;Signal;HPM_P1;HPM_P2
2021/11/30 00:04:05;;;;;;;568.67;155.90;;;5.50;99.90;;;;;;5063661;28;20236;-81
2021/11/30 00:15:05;;;;;;;573.93;148.43;;;5.40;99.90;;;;;;5061622;28;20214;-81
2021/11/30 00:25:51;;;;;;;567.27;154.07;;;5.40;99.90;;;;;;5068378;28;20331;-80
2021/11/30 00:28:18;;;;;;;570.67;157.30;;;5.40;99.90;;;;;;5068116;28;20202;-80
2021/11/30 00:41:30;;;;;;;568.57;150.37;;;5.20;99.90;;;;;;5063822;28;20202;-80
2021/11/30 00:43:58;;;;;;;577.87;153.47;;;5.20;99.90;;;;;;5067451;28;20699;-80
2021/11/30 00:46:33;;;;;;;558.63;136.83;;;5.20;99.90;;;;;;5067272;28;20232;-79
2021/11/30 00:49:00;;;;;;;558.05;130.48;;;5.20;99.90;;;;;;5068886;28;20202;-79
2021/11/30 00:51:28;;;;;;;564.90;152.80;;;5.20;99.90;;;;;;5066266;28;20202;-80
2021/11/30 00:53:54;;;;;;;558.60;132.50;;;5.20;99.90;;;;;;5068155;28;20238;-79
2021/11/30 00:56:21;;;;;;;567.03;154.03;;;5.20;99.90;;;;;;5068727;28;20202;-79
2021/11/30 00:58:50;;;;;;;566.53;141.77;;;5.20;99.90;;;;;;5067163;28;20232;-79
2021/11/30 01:01:19;;;;;;;561.90;142.87;;;5.10;99.90;;;;;;5066972;28;20815;-80
2021/11/30 01:03:46;;;;;;;568.00;159.47;;;5.00;99.90;;;;;;5063601;28;20741;-80
2021/11/30 01:06:13;;;;;;;570.70;153.90;;;5.00;99.90;;;;;;5071624;28;20227;-79
2021/11/30 01:08:40;;;;;;;573.63;152.60;;;5.00;99.90;;;;;;5069481;28;20210;-80
2021/11/30 01:11:07;;;;;;;568.00;149.60;;;5.00;99.90;;;;;;5070502;28;20251;-80
2021/11/30 01:13:34;;;;;;;565.60;150.50;;;5.00;99.90;;;;;;5070275;28;20212;-80
2021/11/30 01:16:03;;;;;;;567.90;155.37;;;5.00;99.90;;;;;;5070142;28;20201;-80
2021/11/30 01:18:31;;;;;;;562.73;138.37;;;5.00;99.90;;;;;;5070605;28;20202;-80
2021/11/30 01:20:58;;;;;;;568.23;148.73;;;5.00;99.90;;;;;;5070042;28;20232;-80
2021/11/30 01:23:26;;;;;;;570.63;157.43;;;4.90;99.90;;;;;;5069256;28;20206;-80
2021/11/30 01:25:53;;;;;;;571.00;157.60;;;4.90;99.90;;;;;;5069265;28;20198;-80
2021/11/30 01:28:20;;;;;;;568.07;147.03;;;4.90;99.90;;;;;;5068457;28;20201;-80
2021/11/30 01:30:47;;;;;;;559.80;132.27;;;4.90;99.90;;;;;;5070158;28;20202;-80
2021/11/30 01:33:15;;;;;;;563.10;141.93;;;4.90;99.90;;;;;;5068843;28;20612;-81
2021/11/30 01:35:44;;;;;;;569.97;144.87;;;4.90;99.90;;;;;;5068296;28;20215;-80
2021/11/30 01:38:11;;;;;;;556.83;136.07;;;4.90;99.90;;;;;;5067661;28;20204;-80
2021/11/30 01:40:39;;;;;;;563.00;137.67;;;4.90;99.90;;;;;;5068357;28;20209;-80
2021/11/30 01:43:08;;;;;;;559.07;132.87;;;5.00;99.90;;;;;;5066848;28;20673;-80
2021/11/30 01:45:45;;;;;;;568.20;144.47;;;4.90;99.90;;;;;;5068395;28;20197;-80
2021/11/30 01:51:02;;;;;;;559.83;129.33;;;5.00;99.90;;;;;;5061132;28;20265;-80
2021/11/30 01:53:29;;;;;;;571.70;150.00;;;5.00;99.90;;;;;;5062028;28;20197;-80
2021/11/30 01:55:56;;;;;;;565.37;141.13;;;4.90;99.90;;;;;;5067145;28;20267;-80
2021/11/30 01:58:24;;;;;;;562.03;134.33;;;4.80;99.90;;;;;;5066876;28;20201;-80
2021/11/30 02:00:51;;;;;;;557.17;131.40;;;4.90;99.90;;;;;;5067577;28;20269;-80
2021/11/30 02:03:19;;;;;;;567.90;145.50;;;4.90;99.90;;;;;;5060777;28;20237;-80
2021/11/30 02:05:46;;;;;;;562.27;138.83;;;4.90;99.90;;;;;;5066304;28;20206;-80
2021/11/30 02:08:13;;;;;;;565.90;145.30;;;4.90;99.90;;;;;;5067642;28;20230;-80
2021/11/30 02:10:41;;;;;;;555.73;131.07;;;4.90;99.90;;;;;;5067044;28;20236;-80
2021/11/30 02:13:08;;;;;;;557.67;133.87;;;4.90;99.90;;;;;;5064685;28;20492;-80
2021/11/30 02:15:39;;;;;;;569.90;157.03;;;4.80;99.90;;;;;;5065105;28;20205;-80
2021/11/30 02:18:12;;;;;;;558.80;137.93;;;4.80;99.90;;;;;;5066330;28;20210;-80
2021/11/30 02:20:42;;;;;;;570.07;152.27;;;4.90;99.90;;;;;;5068263;28;20195;-80
2021/11/30 02:23:16;;;;;;;568.97;152.93;;;4.90;99.90;;;;;;5057497;28;20194;-79
2021/11/30 02:25:43;;;;;;;557.87;138.33;;;4.90;99.90;;;;;;5066779;28;20216;-79
2021/11/30 02:30:52;;;;;;;571.37;150.00;;;4.80;99.90;;;;;;5067973;28;20240;-81
2021/11/30 02:33:19;;;;;;;557.30;136.57;;;4.80;99.90;;;;;;5066801;28;20202;-80
2021/11/30 02:35:47;;;;;;;566.53;149.70;;;4.70;99.90;;;;;;5067318;28;20205;-80
2021/11/30 02:46:31;;;;;;;556.47;126.03;;;4.60;99.90;;;;;;5062853;28;20236;-80
2021/11/30 02:48:58;;;;;;;563.17;137.23;;;4.50;99.90;;;;;;5063741;28;20214;-81
2021/11/30 02:59:36;;;;;;;561.03;130.10;;;4.20;99.90;;;;;;5065367;28;20197;-80
2021/11/30 03:07:45;;;;;;;560.80;133.17;;;4.00;99.90;;;;;;5066794;28;20229;-80
2021/11/30 03:10:15;;;;;;;561.73;128.40;;;4.00;99.90;;;;;;5062458;28;20239;-81
2021/11/30 03:18:07;;;;;;;554.67;126.43;;;3.90;99.90;;;;;;5065893;28;20201;-80
2021/11/30 03:20:34;;;;;;;560.17;136.03;;;3.80;99.90;;;;;;5065398;28;20196;-80
2021/11/30 03:23:03;;;;;;;554.87;134.03;;;3.90;99.90;;;;;;5066735;28;20204;-80
2021/11/30 03:25:30;;;;;;;559.97;128.33;;;3.90;99.90;;;;;;5067502;28;20205;-80
2021/11/30 03:27:57;;;;;;;548.03;116.07;;;3.90;99.90;;;;;;5066058;28;20229;-80
2021/11/30 03:30:25;;;;;;;556.23;130.07;;;3.90;99.90;;;;;;5066508;28;20286;-80
2021/11/30 03:35:36;;;;;;;554.60;126.27;;;3.90;99.90;;;;;;5065641;28;20285;-81
2021/11/30 03:51:29;;;;;;;558.60;133.37;;;4.10;99.90;;;;;;5064238;28;20241;-81
2021/11/30 03:53:57;;;;;;;559.20;141.13;;;4.10;99.90;;;;;;5069483;28;20232;-81
2021/11/30 03:56:26;;;;;;;557.27;133.87;;;4.10;99.90;;;;;;5068726;28;20228;-81
2021/11/30 04:04:22;;;;;;;547.60;124.17;;;4.10;99.90;;;;;;5066484;28;20304;-81
2021/11/30 04:09:47;;;;;;;540.73;112.07;;;4.20;99.90;;;;;;5069696;28;20203;-80
2021/11/30 04:12:22;;;;;;;556.20;134.87;;;4.30;99.90;;;;;;5065166;28;20695;-80
2021/11/30 04:20:12;;;;;;;557.07;128.87;;;4.30;99.90;;;;;;5066227;28;20208;-81
2021/11/30 04:22:39;;;;;;;552.37;128.00;;;4.30;99.90;;;;;;5066304;28;20210;-77
2021/11/30 04:25:10;;;;;;;560.27;144.93;;;4.30;99.90;;;;;;5059790;28;20209;-77
2021/11/30 04:27:39;;;;;;;559.03;137.80;;;4.40;99.90;;;;;;5065800;28;20226;-76
2021/11/30 04:30:07;;;;;;;564.10;147.40;;;4.40;99.90;;;;;;5066258;28;20232;-77
2021/11/30 04:32:34;;;;;;;559.23;138.93;;;4.40;99.90;;;;;;5066145;28;20206;-76
2021/11/30 04:35:01;;;;;;;561.90;143.90;;;4.40;99.90;;;;;;5066131;28;20275;-77
2021/11/30 04:37:28;;;;;;;555.50;131.13;;;4.40;99.90;;;;;;5060933;28;20213;-77
2021/11/30 04:42:41;;;;;;;553.43;134.13;;;4.60;99.90;;;;;;5065200;28;20293;-77
2021/11/30 04:45:11;;;;;;;559.37;143.30;;;4.70;99.90;;;;;;5064993;28;20278;-76
2021/11/30 04:47:41;;;;;;;557.50;142.67;;;4.70;99.90;;;;;;5064865;28;20262;-76
2021/11/30 04:50:14;;;;;;;560.67;144.27;;;4.70;99.90;;;;;;5064484;28;20285;-76
2021/11/30 04:52:42;;;;;;;559.67;140.13;;;4.80;99.90;;;;;;5065939;28;20206;-77
2021/11/30 04:55:10;;;;;;;562.07;143.07;;;4.90;99.90;;;;;;5066025;28;20232;-77
2021/11/30 04:57:38;;;;;;;561.00;138.60;;;4.90;99.90;;;;;;5065751;28;20202;-77
2021/11/30 05:00:07;;;;;;;561.00;140.90;;;5.00;99.90;;;;;;5066135;28;20202;-77
2021/11/30 05:02:35;;;;;;;561.20;146.50;;;5.00;99.90;;;;;;5064978;28;20232;-77
2021/11/30 05:05:02;;;;;;;562.10;148.07;;;5.00;99.90;;;;;;5065213;28;20233;-77
2021/11/30 05:07:29;;;;;;;556.17;141.13;;;5.00;99.90;;;;;;5065869;28;20237;-77
2021/11/30 05:09:56;;;;;;;566.97;159.20;;;5.00;99.90;;;;;;5064881;28;20651;-77
2021/11/30 05:12:23;;;;;;;567.90;155.97;;;5.10;99.90;;;;;;5065815;28;20198;-76
2021/11/30 05:14:53;;;;;;;555.27;133.97;;;5.20;99.90;;;;;;5064979;28;20266;-77
2021/11/30 05:17:20;;;;;;;563.30;145.83;;;5.20;99.90;;;;;;5065044;28;20194;-77
2021/11/30 05:19:50;;;;;;;555.83;137.00;;;5.20;99.90;;;;;;5066003;28;20209;-76
2021/11/30 05:22:17;;;;;;;561.67;149.70;;;5.20;99.90;;;;;;5065457;28;20228;-77
2021/11/30 05:24:44;;;;;;;566.87;156.83;;;5.30;99.90;;;;;;5064446;28;20206;-77
2021/11/30 05:27:11;;;;;;;558.17;142.00;;;5.30;99.90;;;;;;5066852;28;20252;-77
2021/11/30 05:29:38;;;;;;;565.43;151.13;;;5.30;99.90;;;;;;5065412;28;20217;-77
2021/11/30 05:32:08;;;;;;;558.33;136.03;;;5.30;99.90;;;;;;5061472;28;20205;-77
2021/11/30 05:34:34;;;;;;;560.03;143.43;;;5.40;99.90;;;;;;5062437;28;20725;-77
2021/11/30 05:37:01;;;;;;;571.87;164.67;;;5.40;99.90;;;;;;5062953;28;20202;-77
2021/11/30 05:39:28;;;;;;;558.00;141.67;;;5.50;99.90;;;;;;5064347;28;20202;-77
2021/11/30 05:41:55;;;;;;;569.20;166.27;;;5.50;99.90;;;;;;5064296;28;20265;-77
2021/11/30 05:44:23;;;;;;;564.87;152.20;;;5.50;99.90;;;;;;5064182;28;20206;-76
2021/11/30 05:46:50;;;;;;;561.00;147.67;;;5.50;99.90;;;;;;5065231;28;20213;-77
2021/11/30 05:49:19;;;;;;;568.67;163.50;;;5.50;99.90;;;;;;5063871;28;20252;-77
2021/11/30 05:51:46;;;;;;;566.17;155.23;;;5.50;99.90;;;;;;5064271;28;20209;-77
2021/11/30 05:54:13;;;;;;;570.47;169.50;;;5.60;99.90;;;;;;5064449;28;20198;-77
2021/11/30 05:56:41;;;;;;;565.90;155.30;;;5.60;99.90;;;;;;5064585;28;20597;-77
2021/11/30 05:59:10;;;;;;;568.63;156.93;;;5.60;99.90;;;;;;5064718;28;20214;-77
2021/11/30 06:01:37;;;;;;;565.57;156.40;;;5.60;99.90;;;;;;5065023;28;20228;-77
2021/11/30 06:04:04;;;;;;;570.23;172.90;;;5.60;99.90;;;;;;5061689;28;21444;-77
2021/11/30 06:06:35;;;;;;;562.57;153.00;;;5.60;99.90;;;;;;5064033;28;20206;-77
2021/11/30 06:09:04;;;;;;;570.40;162.17;;;5.70;99.90;;;;;;5061419;28;20229;-77
2021/11/30 06:11:31;;;;;;;567.97;158.77;;;5.70;99.90;;;;;;5064140;28;20205;-77
2021/11/30 06:13:58;;;;;;;568.60;161.83;;;5.70;99.90;;;;;;5064210;28;20228;-77
2021/11/30 06:16:26;;;;;;;566.43;150.20;;;5.80;99.90;;;;;;5063808;28;20205;-77
2021/11/30 06:18:53;;;;;;;571.20;160.43;;;5.80;99.90;;;;;;5065668;28;20236;-78
2021/11/30 06:21:20;;;;;;;570.40;159.67;;;5.80;99.90;;;;;;5065098;28;20209;-78
2021/11/30 06:23:50;;;;;;;565.00;149.80;;;5.80;99.90;;;;;;5064298;28;20231;-77
2021/11/30 06:26:18;;;;;;;567.53;148.57;;;5.80;99.90;;;;;;5063334;28;20202;-77
2021/11/30 06:28:45;;;;;;;571.67;168.03;;;5.90;99.90;;;;;;5062739;28;20233;-77
2021/11/30 06:31:12;;;;;;;576.83;177.13;;;5.90;99.90;;;;;;5063373;28;20220;-77
2021/11/30 06:33:39;;;;;;;572.07;166.93;;;5.90;99.90;;;;;;5062972;28;20205;-77
2021/11/30 06:36:06;;;;;;;577.13;172.73;;;5.90;99.90;;;;;;5063707;28;20224;-77
2021/11/30 06:38:33;;;;;;;576.28;169.77;;;5.90;99.90;;;;;;5062841;28;20263;-77
2021/11/30 06:41:02;;;;;;;574.10;168.23;;;6.00;99.90;;;;;;5064342;28;20206;-77
2021/11/30 06:43:29;;;;;;;579.23;176.90;;;6.00;99.90;;;;;;5055670;28;20218;-77
2021/11/30 06:45:56;;;;;;;576.17;172.93;;;6.10;99.90;;;;;;5059311;28;20202;-77
2021/11/30 06:48:23;;;;;;;578.47;183.60;;;6.20;99.90;;;;;;5063243;28;20283;-77
2021/11/30 06:50:51;;;;;;;570.90;164.23;;;6.20;99.90;;;;;;5062815;28;20213;-77
2021/11/30 06:53:19;;;;;;;569.10;155.53;;;6.20;99.90;;;;;;5062819;28;20214;-77
2021/11/30 06:55:46;;;;;;;577.30;171.93;;;6.20;99.90;;;;;;5062459;28;20205;-77
2021/11/30 06:58:14;;;;;;;568.87;158.33;;;6.30;99.90;;;;;;5062455;28;20229;-77
2021/11/30 07:00:42;;;;;;;578.77;177.63;;;6.40;99.90;;;;;;5065705;28;20206;-79
2021/11/30 07:03:10;;;;;;;586.17;191.63;;;6.40;99.90;;;;;;5068372;28;20235;-79
2021/11/30 07:05:38;;;;;;;581.30;173.93;;;6.40;99.90;;;;;;5067612;28;20197;-79
2021/11/30 07:11:02;;;;;;;596.63;225.60;;;6.50;99.90;;;;;;5066547;28;20447;-80
2021/11/30 07:16:12;;;;;;;583.10;188.57;;;6.70;99.90;;;;;;5062239;28;20206;-79
2021/11/30 07:18:40;;;;;;;587.30;198.23;;;6.70;99.90;;;;;;5065331;28;20206;-79
2021/11/30 07:21:08;;;;;;;591.27;196.43;;;6.70;99.90;;;;;;5063165;28;20194;-79
2021/11/30 07:23:42;;;;;;;585.03;187.40;;;6.80;99.90;;;;;;5070216;28;20255;-79
2021/11/30 07:26:09;;;;;;;585.47;194.27;;;6.80;99.90;;;;;;5071088;28;20197;-79
2021/11/30 07:28:37;;;;;;;589.67;202.33;;;6.90;99.90;;;;;;5069520;28;20247;-78
2021/11/30 07:31:09;;;;;;;582.17;188.17;;;6.80;99.90;;;;;;5071798;28;20236;-79
2021/11/30 07:33:38;;;;;;;586.43;205.03;;;6.90;99.90;;;;;;5065562;28;20202;-79
2021/11/30 07:36:06;;;;;;;588.17;209.23;;;6.90;99.90;;;;;;5067307;28;20258;-79
2021/11/30 07:38:34;;;;;;;582.63;190.17;;;7.00;99.90;;;;;;5070236;28;20202;-79
2021/11/30 07:41:03;;;;;;;575.70;168.67;;;7.00;99.90;;;;;;5069286;28;20210;-77
2021/11/30 07:43:30;;;;;;;581.30;179.57;;;7.00;99.90;;;;;;5068350;28;20202;-78
2021/11/30 07:46:00;;;;;;;576.10;171.77;;;7.10;99.90;;;;;;5070368;28;20205;-79
2021/11/30 07:48:28;;;;;;;585.10;197.03;;;7.10;99.90;;;;;;5067389;28;20484;-79
2021/11/30 07:50:59;;;;;;;591.47;209.27;;;7.20;99.90;;;;;;5071141;28;20201;-79
2021/11/30 07:53:28;;;;;;;575.40;171.17;;;7.20;99.90;;;;;;5069814;28;20208;-78
2021/11/30 07:55:56;;;;;;;585.10;186.67;;;7.10;99.90;;;;;;5070477;28;20256;-79
2021/11/30 07:58:24;;;;;;;579.23;179.27;;;7.20;99.90;;;;;;5070486;28;20198;-79
2021/11/30 08:00:52;;;;;;;587.63;200.33;;;7.20;99.90;;;;;;5070985;28;20210;-79
2021/11/30 08:03:24;;;;;;;591.17;203.23;;;7.30;99.90;;;;;;5070482;28;20228;-79
2021/11/30 08:05:51;;;;;;;589.87;193.23;;;7.30;99.90;;;;;;5065981;28;20210;-78
2021/11/30 08:08:18;;;;;;;594.87;205.97;;;7.30;99.90;;;;;;5070272;28;20227;-79
2021/11/30 08:10:45;;;;;;;587.17;186.40;;;7.30;99.90;;;;;;5068935;28;20211;-79
2021/11/30 08:13:12;;;;;;;582.87;175.23;;;7.30;99.90;;;;;;5069640;28;20202;-80
2021/11/30 08:18:22;;;;;;;595.10;209.27;;;7.40;99.90;;;;;;5065088;28;20209;-79
2021/11/30 08:20:50;;;;;;;592.73;191.57;;;7.50;99.90;;;;;;5075472;28;20653;-79
2021/11/30 08:23:17;;;;;;;594.87;195.73;;;7.50;99.90;;;;;;5071313;28;20636;-80
2021/11/30 08:25:44;;;;;;;583.07;178.40;;;7.50;99.90;;;;;;5069229;28;20207;-80
2021/11/30 08:28:12;;;;;;;599.07;207.10;;;7.60;99.90;;;;;;5070699;28;20550;-80
2021/11/30 08:30:38;;;;;;;585.37;188.90;;;7.60;99.90;;;;;;5070250;28;20205;-79
2021/11/30 08:33:06;;;;;;;591.77;200.63;;;7.70;99.90;;;;;;5066742;28;20198;-79
2021/11/30 08:35:35;;;;;;;592.80;204.20;;;7.70;99.90;;;;;;5066546;28;20201;-79
2021/11/30 08:38:02;;;;;;;592.50;205.57;;;7.70;99.90;;;;;;5068063;28;20464;-80
2021/11/30 08:40:31;;;;;;;590.17;209.63;;;7.60;99.90;;;;;;5067465;28;20213;-81
2021/11/30 08:42:59;;;;;;;595.73;211.57;;;7.70;99.90;;;;;;5067137;28;20289;-80
2021/11/30 08:45:26;;;;;;;602.00;211.27;;;7.70;99.90;;;;;;5066056;28;20468;-82
2021/11/30 08:47:53;;;;;;;607.90;219.10;;;7.80;99.90;;;;;;5065242;28;20617;-81
2021/11/30 08:53:18;;;;;;;615.47;224.67;;;7.80;99.90;;;;;;5064559;28;20214;-82
2021/11/30 08:58:26;;;;;;;601.63;217.47;;;7.80;99.90;;;;;;5065429;28;20667;-82
2021/11/30 09:00:54;;;;;;;598.53;220.87;;;7.80;99.90;;;;;;5065914;28;20267;-82
2021/11/30 09:03:23;;;;;;;582.80;191.20;;;7.90;99.90;;;;;;5065358;28;20241;-82
2021/11/30 09:08:47;;;;;;;595.80;214.00;;;7.90;99.90;;;;;;5064273;28;20471;-83
2021/11/30 09:11:16;;;;;;;590.63;200.03;;;7.90;99.90;;;;;;5065763;28;20201;-83
2021/11/30 09:19:06;;;;;;;586.03;196.50;;;7.90;99.90;;;;;;5067086;28;20240;-81
2021/11/30 09:21:33;;;;;;;583.67;175.40;;;7.90;99.90;;;;;;5054421;28;20221;-83
2021/11/30 09:24:19;;;;;;;593.00;211.17;;;7.90;99.90;;;;;;5061848;28;20514;-82
2021/11/30 09:26:46;;;;;;;601.90;225.20;;;8.00;99.90;;;;;;5067410;28;20530;-82
2021/11/30 09:34:42;;;;;;;607.07;236.47;;;8.10;99.90;;;;;;5063879;28;20472;-82
2021/11/30 09:40:38;;;;;;;582.40;196.07;;;8.00;99.90;;;;;;5060881;28;20241;-80
2021/11/30 09:43:08;;;;;;;592.67;214.03;;;8.10;99.90;;;;;;5057875;28;20464;-80
2021/11/30 09:51:00;;;;;;;583.73;192.50;;;8.10;99.90;;;;;;5057321;28;20209;-80
2021/11/30 09:59:07;;;;;;;590.37;213.80;;;8.20;99.90;;;;;;5062615;28;20202;-80
2021/11/30 10:01:35;;;;;;;596.67;227.43;;;8.30;99.90;;;;;;5060391;28;20221;-80
2021/11/30 10:04:03;;;;;;;588.43;204.17;;;8.30;99.90;;;;;;5065121;28;20229;-80
2021/11/30 10:06:30;;;;;;;595.57;227.67;;;8.30;99.90;;;;;;5064529;28;20201;-80
2021/11/30 10:11:39;;;;;;;583.93;201.87;;;8.40;99.90;;;;;;5064153;28;20259;-80
2021/11/30 10:14:18;;;;;;;595.30;224.43;;;8.40;99.90;;;;;;5064195;28;20240;-80
2021/11/30 10:17:10;;;;;;;596.40;231.83;;;8.40;99.90;;;;;;5065807;28;20215;-80
2021/11/30 10:22:41;;;;;;;594.67;229.63;;;8.40;99.90;;;;;;5068288;28;20276;-80
2021/11/30 10:25:13;;;;;;;582.13;193.70;;;8.40;99.90;;;;;;5061363;28;20226;-81
2021/11/30 10:27:43;;;;;;;594.13;222.20;;;8.40;99.90;;;;;;5063599;28;20494;-81
2021/11/30 10:30:19;;;;;;;580.13;185.40;;;8.40;99.90;;;;;;5066412;28;20255;-80
2021/11/30 10:32:50;;;;;;;587.83;197.10;;;8.40;99.90;;;;;;5066704;28;20490;-81
2021/11/30 10:35:17;;;;;;;581.20;186.70;;;8.50;99.90;;;;;;5059680;28;20491;-81
2021/11/30 10:37:47;;;;;;;592.87;226.83;;;8.60;99.90;;;;;;5067933;28;20213;-81
2021/11/30 10:43:07;;;;;;;591.00;223.67;;;8.60;99.90;;;;;;5062600;28;20661;-81
2021/11/30 10:45:40;;;;;;;598.43;242.73;;;8.60;99.90;;;;;;5064561;28;20240;-81
2021/11/30 10:48:09;;;;;;;583.63;203.57;;;8.60;99.90;;;;;;5066371;28;20265;-81
2021/11/30 10:50:38;;;;;;;591.83;224.37;;;8.70;99.90;;;;;;5064438;28;20225;-81
2021/11/30 10:53:20;;;;;;;592.63;232.93;;;8.70;99.90;;;;;;5065452;28;20202;-80
2021/11/30 11:01:17;;;;;;;582.42;196.45;;;8.80;99.90;;;;;;5063671;28;20198;-80
2021/11/30 11:05:29;;;;;;;583.40;202.43;;;8.80;99.90;;;;;;5112501;27;20548;-81
2021/11/30 11:08:10;;;;;;;581.03;189.87;;;8.70;99.90;;;;;;5095555;28;20516;-81
2021/11/30 11:13:22;;;;;;;594.73;228.63;;;8.80;99.90;;;;;;5089049;28;20196;-80
2021/11/30 11:15:51;;;;;;;590.77;224.47;;;8.80;99.90;;;;;;5094736;28;20205;-79
2021/11/30 11:18:23;;;;;;;581.83;202.47;;;8.80;99.90;;;;;;5091433;28;20201;-79
2021/11/30 11:24:02;;;;;;;592.90;244.13;;;8.90;99.90;;;;;;5107212;28;20263;-79
2021/11/30 11:29:22;;;;;;;589.17;219.00;;;9.00;99.90;;;;;;5101805;28;20219;-80
2021/11/30 11:34:34;;;;;;;592.40;240.07;;;9.00;99.90;;;;;;5102433;28;20466;-80
2021/11/30 11:47:51;;;;;;;584.17;209.50;;;9.10;99.90;;;;;;5098223;28;20209;-80
2021/11/30 11:53:22;;;;;;;596.30;250.73;;;9.10;99.90;;;;;;5099640;28;21089;-80
2021/11/30 11:56:18;;;;;;;595.10;244.83;;;9.10;99.90;;;;;;5099646;28;20273;-80
2021/11/30 12:01:35;;;;;;;591.57;227.70;;;9.10;99.90;;;;;;5098145;28;20284;-79
2021/11/30 12:06:53;;;;;;;597.17;252.50;;;9.20;99.90;;;;;;5085794;28;20209;-80
2021/11/30 12:09:40;;;;;;;589.57;227.23;;;9.30;99.90;;;;;;5073582;28;20208;-82
2021/11/30 12:12:22;;;;;;;595.13;249.47;;;9.20;99.90;;;;;;5100609;28;20467;-80
2021/11/30 12:14:51;;;;;;;599.27;260.13;;;9.40;99.90;;;;;;5084370;28;20213;-80
2021/11/30 12:20:10;;;;;;;593.07;244.67;;;9.40;99.90;;;;;;5076530;28;20533;-79
2021/11/30 12:22:50;;;;;;;594.97;248.17;;;9.40;99.90;;;;;;5081846;28;20197;-79
2021/11/30 12:25:58;;;;;;;598.83;256.43;;;9.50;99.90;;;;;;5085973;28;20757;-79
2021/11/30 12:28:38;;;;;;;584.70;208.50;;;9.40;99.90;;;;;;5081346;28;20689;-81
2021/11/30 12:31:06;;;;;;;594.97;243.07;;;9.40;99.90;;;;;;5084254;28;20282;-81
2021/11/30 12:36:29;;;;;;;591.27;224.87;;;9.50;99.90;;;;;;5086476;28;20486;-81
2021/11/30 12:39:10;;;;;;;597.43;249.20;;;9.50;99.90;;;;;;5083005;28;20471;-81
2021/11/30 12:47:34;;;;;;;593.63;241.90;;;9.50;99.90;;;;;;5081350;28;20220;-81
2021/11/30 12:55:25;;;;;;;599.77;262.47;;;9.60;99.90;;;;;;5074338;28;20553;-81
2021/11/30 12:57:52;;;;;;;588.80;225.77;;;9.60;99.90;;;;;;5085510;28;20227;-80
2021/11/30 13:00:25;;;;;;;596.87;252.40;;;9.60;99.90;;;;;;5075012;28;20263;-80
2021/11/30 13:02:54;;;;;;;592.20;229.00;;;9.70;99.90;;;;;;5089616;28;20259;-80
2021/11/30 13:08:15;;;;;;;597.07;254.77;;;9.60;99.90;;;;;;5071555;28;20202;-81
2021/11/30 13:10:55;;;;;;;599.83;264.83;;;9.70;99.90;;;;;;5075673;28;20227;-82
2021/11/30 13:16:19;;;;;;;594.73;245.03;;;9.70;99.90;;;;;;5078298;28;20208;-80
2021/11/30 13:18:54;;;;;;;635.65;452.65;;;9.70;99.90;;;;;;5078303;28;20454;-79
2021/11/30 13:24:12;;;;;;;588.60;246.23;;;9.70;99.90;;;;;;5073457;28;20484;-82
2021/11/30 13:29:30;;;;;;;584.30;226.57;;;9.70;99.90;;;;;;5082228;28;20447;-81
2021/11/30 13:32:04;;;;;;;587.33;234.03;;;9.60;99.90;;;;;;5086988;28;20524;-81
2021/11/30 13:42:48;;;;;;;586.63;236.33;;;9.60;99.90;;;;;;5081644;28;20251;-81
2021/11/30 13:45:23;;;;;;;585.57;234.23;;;9.70;99.90;;;;;;5083113;28;20524;-80
2021/11/30 13:48:06;;;;;;;577.27;206.70;;;9.70;99.90;;;;;;5083303;28;20454;-80
2021/11/30 13:50:39;;;;;;;582.50;221.33;;;9.70;99.90;;;;;;5083857;28;20479;-80
2021/11/30 13:53:16;;;;;;;576.27;205.50;;;9.70;99.90;;;;;;5082914;28;20993;-80
2021/11/30 13:58:43;;;;;;;599.93;271.50;;;9.70;99.90;;;;;;5073654;28;20460;-82
2021/11/30 14:03:54;;;;;;;594.23;247.63;;;9.70;99.90;;;;;;5091015;28;20233;-82
2021/11/30 14:09:11;;;;;;;599.77;263.43;;;9.80;99.90;;;;;;5086160;28;20254;-82
2021/11/30 14:17:07;;;;;;;603.37;276.37;;;9.70;99.90;;;;;;5085395;28;20506;-82
2021/11/30 14:25:05;;;;;;;598.33;263.07;;;9.70;99.90;;;;;;5083130;28;20220;-80
2021/11/30 14:30:23;;;;;;;601.93;264.57;;;9.70;99.90;;;;;;5076177;28;20201;-81
2021/11/30 14:33:01;;;;;;;590.63;231.87;;;9.70;99.90;;;;;;5082562;28;20209;-80
2021/11/30 14:35:46;;;;;;;602.50;270.43;;;9.80;99.90;;;;;;5090505;28;20471;-80
2021/11/30 14:38:23;;;;;;;591.73;238.13;;;9.80;99.90;;;;;;5088597;28;20219;-80
2021/11/30 14:46:18;;;;;;;594.93;241.77;;;9.70;99.90;;;;;;5082671;28;20724;-80
2021/11/30 14:51:34;;;;;;;601.40;265.83;;;9.70;99.90;;;;;;5082369;28;20551;-80
2021/11/30 14:56:56;;;;;;;603.17;279.30;;;9.70;99.90;;;;;;5081920;28;20269;-80
2021/11/30 14:59:32;;;;;;;598.87;253.97;;;9.80;99.90;;;;;;5083332;28;20224;-80
2021/11/30 15:07:37;;;;;;;605.10;274.57;;;9.80;99.90;;;;;;5083621;28;20218;-82
2021/11/30 15:10:13;;;;;;;592.20;234.37;;;9.80;99.90;;;;;;5085584;28;20205;-81
2021/11/30 15:18:14;;;;;;;601.50;270.03;;;9.90;99.90;;;;;;5075118;28;20459;-82
2021/11/30 15:20:44;;;;;;;593.50;242.67;;;9.90;99.90;;;;;;5084445;28;20238;-82
2021/11/30 15:26:03;;;;;;;592.70;240.13;;;9.80;99.90;;;;;;5082104;28;20216;-82
2021/11/30 15:39:16;;;;;;;578.40;210.97;;;9.80;99.90;;;;;;5073173;28;20202;-81
2021/11/30 15:52:36;;;;;;;609.33;309.43;;;9.90;99.90;;;;;;5086680;28;20212;-81
2021/11/30 15:55:29;;;;;;;607.53;289.57;;;9.90;99.90;;;;;;5084828;28;20216;-81
2021/11/30 15:57:55;;;;;;;602.23;270.50;;;9.90;99.90;;;;;;5084676;28;20212;-80
2021/11/30 16:00:29;;;;;;;608.50;295.90;;;9.90;99.90;;;;;;5081575;28;20654;-80
2021/11/30 16:02:56;;;;;;;625.70;297.93;;;9.90;99.90;;;;;;5080247;28;20270;-81
2021/11/30 16:05:30;;;;;;;603.80;291.13;;;10.00;99.90;;;;;;5083092;28;20224;-82
2021/11/30 16:08:00;;;;;;;603.03;280.30;;;10.00;99.90;;;;;;5082312;28;20571;-82
2021/11/30 16:16:26;;;;;;;602.77;272.33;;;10.10;99.90;;;;;;5081045;28;20328;-80
2021/11/30 16:21:52;;;;;;;608.13;292.80;;;10.00;99.90;;;;;;5070268;28;20284;-82
2021/11/30 16:27:58;;;;;;;602.90;270.83;;;10.10;99.90;;;;;;4948860;29;20249;-81
2021/11/30 16:41:08;;;;;;;592.20;238.63;;;10.10;99.90;;;;;;4947634;29;20218;-81
2021/11/30 16:43:48;;;;;;;601.93;284.20;;;10.10;99.90;;;;;;4941468;29;22514;-81
2021/11/30 16:47:08;;;;;;;605.10;286.43;;;10.10;99.90;;;;;;4943133;29;20281;-81
2021/11/30 16:50:01;;;;;;;595.87;250.80;;;10.10;99.90;;;;;;4964554;28;20211;-84
2021/11/30 16:55:19;;;;;;;585.07;230.63;;;10.20;99.90;;;;;;4999752;28;20943;-81
2021/11/30 17:03:17;;;;;;;588.50;258.17;;;10.20;99.90;;;;;;5008411;28;20498;-81
2021/11/30 17:13:48;;;;;;;586.33;246.57;;;10.20;99.90;;;;;;5075864;28;20447;-81
2021/11/30 17:16:19;;;;;;;573.50;203.80;;;10.20;99.90;;;;;;5076656;28;20464;-81
2021/11/30 17:18:46;;;;;;;588.80;250.97;;;10.20;99.90;;;;;;5069122;28;20514;-82
2021/11/30 17:24:06;;;;;;;583.70;221.13;;;10.10;99.90;;;;;;5082296;28;20524;-82
2021/11/30 17:32:02;;;;;;;580.43;200.27;;;10.10;99.90;;;;;;5080642;28;20451;-81
2021/11/30 17:39:51;;;;;;;598.20;253.83;;;10.10;99.90;;;;;;5081345;28;20196;-81
2021/11/30 17:42:18;;;;;;;604.23;278.27;;;10.10;99.90;;;;;;5076547;28;20459;-80
2021/11/30 17:44:45;;;;;;;592.53;230.27;;;10.10;99.90;;;;;;5080220;28;20319;-81
2021/11/30 17:55:27;;;;;;;580.27;215.10;;;10.00;99.90;;;;;;5078918;28;20476;-81
2021/11/30 17:58:02;;;;;;;592.97;256.90;;;10.10;99.90;;;;;;5078068;28;20494;-81
2021/11/30 18:11:17;;;;;;;598.17;264.17;;;10.00;99.90;;;;;;5072632;28;20498;-80
2021/11/30 18:19:23;;;;;;;595.73;266.07;;;10.20;99.90;;;;;;5083511;28;20463;-82
2021/11/30 18:21:52;;;;;;;587.57;226.50;;;10.20;99.90;;;;;;5072920;28;20471;-82
2021/11/30 18:32:29;;;;;;;603.83;275.83;;;10.20;99.90;;;;;;5073039;28;20527;-81
2021/11/30 18:35:12;;;;;;;604.80;272.00;;;10.30;99.90;;;;;;5067313;28;20536;-80
2021/11/30 18:37:39;;;;;;;591.57;228.20;;;10.20;99.90;;;;;;5068362;28;20472;-80
2021/11/30 18:40:19;;;;;;;607.70;278.43;;;10.20;99.90;;;;;;5067825;28;20558;-80
2021/11/30 18:45:35;;;;;;;608.40;263.67;;;10.30;99.90;;;;;;5069714;28;20471;-80
2021/11/30 18:56:14;;;;;;;601.70;264.77;;;10.20;99.90;;;;;;5074489;28;20482;-80